sensor_id;sensor_type;location;lat;lon;timestamp;pressure;altitude;pressure_sealevel;temperature;humidity
60479;BME280;46321;48.398;11.754;2023-05-07T00:00:58;96547.78;;;11.03;86.51
60479;BME280;46321;48.398;11.754;2023-05-07T00:03:24;96544.50;;;11.01;86.39
60479;BME280;46321;48.398;11.754;2023-05-07T00:05:51;96550.44;;;11.03;86.04
60479;BME280;46321;48.398;11.754;2023-05-07T00:08:18;96548.81;;;11.02;86.07
60479;BME280;46321;48.398;11.754;2023-05-07T00:10:43;96545.97;;;11.03;86.35
60479;BME280;46321;48.398;11.754;2023-05-07T00:13:09;96552.94;;;11.04;86.49
60479;BME280;46321;48.398;11.754;2023-05-07T00:15:34;96556.75;;;11.02;86.18
60479;BME280;46321;48.398;11.754;2023-05-07T00:17:59;96566.22;;;10.96;86.33
60479;BME280;46321;48.398;11.754;2023-05-07T00:20:25;96552.16;;;10.95;85.66
60479;BME280;46321;48.398;11.754;2023-05-07T00:22:50;96547.84;;;10.94;85.98
60479;BME280;46321;48.398;11.754;2023-05-07T00:25:16;96555.16;;;10.92;86.52
60479;BME280;46321;48.398;11.754;2023-05-07T00:27:41;96553.50;;;10.91;87.64
60479;BME280;46321;48.398;11.754;2023-05-07T00:30:07;96555.03;;;10.85;88.23
60479;BME280;46321;48.398;11.754;2023-05-07T00:32:33;96542.97;;;10.83;88.52
60479;BME280;46321;48.398;11.754;2023-05-07T00:34:58;96540.69;;;10.80;88.26
60479;BME280;46321;48.398;11.754;2023-05-07T00:37:24;96541.66;;;10.79;87.97
60479;BME280;46321;48.398;11.754;2023-05-07T00:39:49;96545.16;;;10.79;88.06
60479;BME280;46321;48.398;11.754;2023-05-07T00:42:14;96536.38;;;10.79;88.05
60479;BME280;46321;48.398;11.754;2023-05-07T00:44:41;96540.56;;;10.73;88.84
60479;BME280;46321;48.398;11.754;2023-05-07T00:47:07;96541.53;;;10.72;88.67
60479;BME280;46321;48.398;11.754;2023-05-07T00:49:41;96538.06;;;10.71;89.03
60479;BME280;46321;48.398;11.754;2023-05-07T00:52:09;96535.25;;;10.73;88.64
60479;BME280;46321;48.398;11.754;2023-05-07T00:54:36;96533.06;;;10.76;88.33
60479;BME280;46321;48.398;11.754;2023-05-07T00:57:02;96528.31;;;10.72;88.74
60479;BME280;46321;48.398;11.754;2023-05-07T00:59:28;96526.81;;;10.69;89.05
60479;BME280;46321;48.398;11.754;2023-05-07T01:01:54;96530.31;;;10.70;89.13
60479;BME280;46321;48.398;11.754;2023-05-07T01:04:19;96524.66;;;10.73;89.39
60479;BME280;46321;48.398;11.754;2023-05-07T01:06:45;96528.31;;;10.72;89.50
60479;BME280;46321;48.398;11.754;2023-05-07T01:09:12;96528.19;;;10.65;90.07
60479;BME280;46321;48.398;11.754;2023-05-07T01:11:38;96524.69;;;10.64;89.39
60479;BME280;46321;48.398;11.754;2023-05-07T01:14:04;96523.53;;;10.67;89.29
60479;BME280;46321;48.398;11.754;2023-05-07T01:16:29;96530.31;;;10.70;88.74
60479;BME280;46321;48.398;11.754;2023-05-07T01:18:55;96523.53;;;10.67;88.69
60479;BME280;46321;48.398;11.754;2023-05-07T01:21:25;96534.13;;;10.67;89.08
60479;BME280;46321;48.398;11.754;2023-05-07T01:23:52;96535.13;;;10.66;89.89
60479;BME280;46321;48.398;11.754;2023-05-07T01:26:17;96536.31;;;10.63;89.58
60479;BME280;46321;48.398;11.754;2023-05-07T01:28:44;96532.19;;;10.61;90.33
60479;BME280;46321;48.398;11.754;2023-05-07T01:31:10;96529.41;;;10.54;90.11
60479;BME280;46321;48.398;11.754;2023-05-07T01:33:38;96531.72;;;10.57;89.58
60479;BME280;46321;48.398;11.754;2023-05-07T01:36:05;96530.88;;;10.57;89.00
60479;BME280;46321;48.398;11.754;2023-05-07T01:38:32;96518.47;;;10.57;88.91
60479;BME280;46321;48.398;11.754;2023-05-07T01:40:58;96518.81;;;10.54;89.38
60479;BME280;46321;48.398;11.754;2023-05-07T01:43:23;96524.94;;;10.46;89.51
60479;BME280;46321;48.398;11.754;2023-05-07T01:45:48;96526.09;;;10.52;89.25
60479;BME280;46321;48.398;11.754;2023-05-07T01:48:15;96523.66;;;10.50;89.09
60479;BME280;46321;48.398;11.754;2023-05-07T01:50:41;96516.50;;;10.51;89.06
60479;BME280;46321;48.398;11.754;2023-05-07T01:53:07;96522.97;;;10.48;89.47
60479;BME280;46321;48.398;11.754;2023-05-07T01:55:33;96526.13;;;10.44;90.26
60479;BME280;46321;48.398;11.754;2023-05-07T01:57:58;96522.19;;;10.39;90.25
60479;BME280;46321;48.398;11.754;2023-05-07T02:00:23;96528.97;;;10.34;90.72
60479;BME280;46321;48.398;11.754;2023-05-07T02:02:48;96533.28;;;10.35;90.48
60479;BME280;46321;48.398;11.754;2023-05-07T02:05:14;96528.31;;;10.31;91.14
60479;BME280;46321;48.398;11.754;2023-05-07T02:07:39;96535.28;;;10.33;91.69
60479;BME280;46321;48.398;11.754;2023-05-07T02:10:05;96535.28;;;10.33;91.37
60479;BME280;46321;48.398;11.754;2023-05-07T02:12:31;96531.16;;;10.30;91.14
60479;BME280;46321;48.398;11.754;2023-05-07T02:14:56;96530.97;;;10.31;90.31
60479;BME280;46321;48.398;11.754;2023-05-07T02:17:21;96534.78;;;10.29;90.73
60479;BME280;46321;48.398;11.754;2023-05-07T02:19:47;96535.94;;;10.26;90.49
60479;BME280;46321;48.398;11.754;2023-05-07T02:22:12;96538.59;;;10.26;90.60
60479;BME280;46321;48.398;11.754;2023-05-07T02:24:37;96544.72;;;10.27;90.60
60479;BME280;46321;48.398;11.754;2023-05-07T02:27:02;96539.25;;;10.28;90.25
60479;BME280;46321;48.398;11.754;2023-05-07T02:29:28;96534.97;;;10.27;90.54
60479;BME280;46321;48.398;11.754;2023-05-07T02:31:53;96534.97;;;10.27;90.52
60479;BME280;46321;48.398;11.754;2023-05-07T02:34:19;96540.59;;;10.24;90.99
60479;BME280;46321;48.398;11.754;2023-05-07T02:36:44;96535.00;;;10.19;90.97
60479;BME280;46321;48.398;11.754;2023-05-07T02:39:10;96535.97;;;10.18;90.71
60479;BME280;46321;48.398;11.754;2023-05-07T02:41:36;96528.53;;;10.22;90.29
60479;BME280;46321;48.398;11.754;2023-05-07T02:44:01;96524.56;;;10.17;90.65
60479;BME280;46321;48.398;11.754;2023-05-07T02:46:26;96533.66;;;10.15;90.67
60479;BME280;46321;48.398;11.754;2023-05-07T02:48:51;96532.38;;;10.11;90.26
60479;BME280;46321;48.398;11.754;2023-05-07T02:51:21;96530.22;;;10.06;90.68
60479;BME280;46321;48.398;11.754;2023-05-07T02:53:47;96528.41;;;10.06;90.96
60479;BME280;46321;48.398;11.754;2023-05-07T02:56:12;96536.03;;;10.10;91.22
60479;BME280;46321;48.398;11.754;2023-05-07T02:58:37;96533.38;;;10.10;91.40
60479;BME280;46321;48.398;11.754;2023-05-07T03:01:04;96526.59;;;10.07;91.25
60479;BME280;46321;48.398;11.754;2023-05-07T03:03:30;96528.09;;;10.10;91.12
60479;BME280;46321;48.398;11.754;2023-05-07T03:05:55;96525.47;;;10.01;91.20
60479;BME280;46321;48.398;11.754;2023-05-07T03:08:20;96528.94;;;10.02;91.46
60479;BME280;46321;48.398;11.754;2023-05-07T03:10:46;96534.41;;;10.00;91.52
60479;BME280;46321;48.398;11.754;2023-05-07T03:13:11;96532.59;;;10.01;91.66
60479;BME280;46321;48.398;11.754;2023-05-07T03:15:37;96531.28;;;9.96;92.08
60479;BME280;46321;48.398;11.754;2023-05-07T03:18:02;96538.38;;;9.96;92.55
60479;BME280;46321;48.398;11.754;2023-05-07T03:20:27;96534.06;;;9.95;92.14
60479;BME280;46321;48.398;11.754;2023-05-07T03:22:52;96534.44;;;9.92;92.39
60479;BME280;46321;48.398;11.754;2023-05-07T03:25:18;96528.97;;;9.93;92.07
60479;BME280;46321;48.398;11.754;2023-05-07T03:27:43;96529.16;;;9.92;92.22
60479;BME280;46321;48.398;11.754;2023-05-07T03:30:09;96534.09;;;9.87;91.90
60479;BME280;46321;48.398;11.754;2023-05-07T03:32:35;96531.47;;;9.87;92.11
60479;BME280;46321;48.398;11.754;2023-05-07T03:35:01;96536.75;;;9.87;92.38
60479;BME280;46321;48.398;11.754;2023-05-07T03:37:26;96543.03;;;9.85;92.42
60479;BME280;46321;48.398;11.754;2023-05-07T03:39:51;96531.47;;;9.87;92.18
60479;BME280;46321;48.398;11.754;2023-05-07T03:42:16;96533.44;;;9.84;92.35
60479;BME280;46321;48.398;11.754;2023-05-07T03:44:42;96531.31;;;9.80;92.80
60479;BME280;46321;48.398;11.754;2023-05-07T03:47:07;96526.03;;;9.80;93.14
60479;BME280;46321;48.398;11.754;2023-05-07T03:49:33;96520.41;;;9.74;93.38
60479;BME280;46321;48.398;11.754;2023-05-07T03:51:58;96522.56;;;9.79;93.09
60479;BME280;46321;48.398;11.754;2023-05-07T03:54:23;96520.41;;;9.74;92.93
60479;BME280;46321;48.398;11.754;2023-05-07T03:56:48;96520.94;;;9.70;93.07
60479;BME280;46321;48.398;11.754;2023-05-07T03:59:14;96532.47;;;9.77;93.03
60479;BME280;46321;48.398;11.754;2023-05-07T04:01:39;96539.75;;;9.75;93.21
60479;BME280;46321;48.398;11.754;2023-05-07T04:04:05;96529.53;;;9.72;93.14
60479;BME280;46321;48.398;11.754;2023-05-07T04:06:31;96538.13;;;9.74;93.01
60479;BME280;46321;48.398;11.754;2023-05-07T04:08:56;96536.81;;;9.70;93.53
60479;BME280;46321;48.398;11.754;2023-05-07T04:11:22;96541.56;;;9.74;93.25
60479;BME280;46321;48.398;11.754;2023-05-07T04:13:47;96551.16;;;9.76;93.04
60479;BME280;46321;48.398;11.754;2023-05-07T04:16:12;96545.22;;;9.73;93.31
60479;BME280;46321;48.398;11.754;2023-05-07T04:18:38;96539.28;;;9.71;93.14
60479;BME280;46321;48.398;11.754;2023-05-07T04:21:03;96549.00;;;9.79;93.08
60479;BME280;46321;48.398;11.754;2023-05-07T04:23:29;96552.28;;;9.81;93.11
60479;BME280;46321;48.398;11.754;2023-05-07T04:25:54;96556.59;;;9.82;92.51
60479;BME280;46321;48.398;11.754;2023-05-07T04:28:20;96561.03;;;9.82;92.61
60479;BME280;46321;48.398;11.754;2023-05-07T04:30:45;96562.53;;;9.84;92.13
60479;BME280;46321;48.398;11.754;2023-05-07T04:33:11;96566.66;;;9.87;92.18
60479;BME280;46321;48.398;11.754;2023-05-07T04:35:36;96556.25;;;9.85;92.85
60479;BME280;46321;48.398;11.754;2023-05-07T04:38:02;96559.72;;;9.86;92.84
60479;BME280;46321;48.398;11.754;2023-05-07T04:40:27;96559.56;;;9.88;92.57
60479;BME280;46321;48.398;11.754;2023-05-07T04:42:52;96559.56;;;9.88;92.49
60479;BME280;46321;48.398;11.754;2023-05-07T04:45:18;96564.16;;;9.94;92.33
60479;BME280;46321;48.398;11.754;2023-05-07T04:47:43;96571.56;;;10.07;92.11
60479;BME280;46321;48.398;11.754;2023-05-07T04:50:09;96568.41;;;10.12;92.09
60479;BME280;46321;48.398;11.754;2023-05-07T04:52:34;96564.75;;;10.21;92.08
60479;BME280;46321;48.398;11.754;2023-05-07T04:55:00;96559.25;;;10.31;91.65
60479;BME280;46321;48.398;11.754;2023-05-07T04:57:26;96556.59;;;10.39;91.26
60479;BME280;46321;48.398;11.754;2023-05-07T04:59:51;96559.00;;;10.49;90.76
60479;BME280;46321;48.398;11.754;2023-05-07T05:02:16;96562.94;;;10.62;90.38
60479;BME280;46321;48.398;11.754;2023-05-07T05:04:42;96570.97;;;10.77;89.64
60479;BME280;46321;48.398;11.754;2023-05-07T05:07:07;96577.97;;;10.93;88.95
60479;BME280;46321;48.398;11.754;2023-05-07T05:09:32;96576.59;;;11.06;88.90
60479;BME280;46321;48.398;11.754;2023-05-07T05:11:58;96566.56;;;11.16;88.84
60479;BME280;46321;48.398;11.754;2023-05-07T05:14:24;96568.47;;;11.31;88.15
60479;BME280;46321;48.398;11.754;2023-05-07T05:16:49;96576.63;;;11.44;87.69
60479;BME280;46321;48.398;11.754;2023-05-07T05:19:14;96575.00;;;11.59;87.68
60479;BME280;46321;48.398;11.754;2023-05-07T05:21:40;96574.56;;;11.70;86.98
60479;BME280;46321;48.398;11.754;2023-05-07T05:24:05;96567.84;;;11.83;86.30
60479;BME280;46321;48.398;11.754;2023-05-07T05:26:30;96566.47;;;11.87;85.84
60479;BME280;46321;48.398;11.754;2023-05-07T05:28:56;96572.75;;;11.86;85.03
60479;BME280;46321;48.398;11.754;2023-05-07T05:31:21;96567.75;;;11.91;84.60
60479;BME280;46321;48.398;11.754;2023-05-07T05:33:46;96573.78;;;12.00;84.56
60479;BME280;46321;48.398;11.754;2023-05-07T05:36:12;96566.75;;;12.07;84.92
60479;BME280;46321;48.398;11.754;2023-05-07T05:38:38;96571.44;;;12.20;84.85
60479;BME280;46321;48.398;11.754;2023-05-07T05:41:04;96570.78;;;12.33;84.20
60479;BME280;46321;48.398;11.754;2023-05-07T05:43:29;96570.50;;;12.43;83.56
60479;BME280;46321;48.398;11.754;2023-05-07T05:45:55;96561.53;;;12.44;82.42
60479;BME280;46321;48.398;11.754;2023-05-07T05:48:21;96566.94;;;12.51;82.12
60479;BME280;46321;48.398;11.754;2023-05-07T05:50:46;96566.56;;;12.54;80.94
60479;BME280;46321;48.398;11.754;2023-05-07T05:53:11;96560.13;;;12.64;81.07
60479;BME280;46321;48.398;11.754;2023-05-07T05:55:36;96558.81;;;12.75;80.34
60479;BME280;46321;48.398;11.754;2023-05-07T05:58:02;96566.13;;;12.88;79.18
60479;BME280;46321;48.398;11.754;2023-05-07T06:00:28;96567.06;;;13.02;77.95
60479;BME280;46321;48.398;11.754;2023-05-07T06:02:53;96562.63;;;13.09;78.30
60479;BME280;46321;48.398;11.754;2023-05-07T06:05:18;96553.72;;;13.17;77.01
60479;BME280;46321;48.398;11.754;2023-05-07T06:07:44;96561.00;;;13.08;78.35
60479;BME280;46321;48.398;11.754;2023-05-07T06:10:09;96565.22;;;13.24;77.49
60479;BME280;46321;48.398;11.754;2023-05-07T06:12:35;96563.19;;;13.26;78.23
60479;BME280;46321;48.398;11.754;2023-05-07T06:15:00;96572.44;;;13.53;76.86
60479;BME280;46321;48.398;11.754;2023-05-07T06:17:26;96568.06;;;13.45;76.23
60479;BME280;46321;48.398;11.754;2023-05-07T06:19:52;96577.78;;;13.31;76.43
60479;BME280;46321;48.398;11.754;2023-05-07T06:22:17;96571.19;;;13.48;76.42
60479;BME280;46321;48.398;11.754;2023-05-07T06:24:42;96581.34;;;13.67;76.97
60479;BME280;46321;48.398;11.754;2023-05-07T06:27:08;96580.09;;;13.91;75.76
60479;BME280;46321;48.398;11.754;2023-05-07T06:29:33;96583.22;;;13.95;74.77
60479;BME280;46321;48.398;11.754;2023-05-07T06:32:12;96574.13;;;14.18;74.33
60479;BME280;46321;48.398;11.754;2023-05-07T06:34:38;96583.00;;;14.32;74.18
60479;BME280;46321;48.398;11.754;2023-05-07T06:37:05;96583.03;;;14.39;73.52
60479;BME280;46321;48.398;11.754;2023-05-07T06:39:30;96582.19;;;14.74;73.92
60479;BME280;46321;48.398;11.754;2023-05-07T06:41:55;96585.03;;;14.79;72.31
60479;BME280;46321;48.398;11.754;2023-05-07T06:44:21;96589.16;;;14.82;73.20
60479;BME280;46321;48.398;11.754;2023-05-07T06:46:46;96589.63;;;14.99;73.25
60479;BME280;46321;48.398;11.754;2023-05-07T06:49:14;96597.28;;;15.22;70.73
60479;BME280;46321;48.398;11.754;2023-05-07T06:51:40;96588.88;;;15.39;71.27
60479;BME280;46321;48.398;11.754;2023-05-07T06:54:05;96596.06;;;15.66;72.40
60479;BME280;46321;48.398;11.754;2023-05-07T06:56:31;96581.91;;;15.99;70.18
60479;BME280;46321;48.398;11.754;2023-05-07T06:58:57;96587.63;;;16.30;68.93
60479;BME280;46321;48.398;11.754;2023-05-07T07:01:22;96586.53;;;16.52;68.69
60479;BME280;46321;48.398;11.754;2023-05-07T07:03:47;96591.44;;;16.55;68.00
60479;BME280;46321;48.398;11.754;2023-05-07T07:06:12;96586.66;;;16.70;68.19
60479;BME280;46321;48.398;11.754;2023-05-07T07:08:38;96591.69;;;16.92;68.26
60479;BME280;46321;48.398;11.754;2023-05-07T07:11:04;96592.22;;;17.15;68.14
60479;BME280;46321;48.398;11.754;2023-05-07T07:13:29;96588.69;;;17.21;66.32
60479;BME280;46321;48.398;11.754;2023-05-07T07:15:55;96596.38;;;17.36;66.34
60479;BME280;46321;48.398;11.754;2023-05-07T07:18:20;96596.38;;;17.36;66.04
60479;BME280;46321;48.398;11.754;2023-05-07T07:20:45;96603.03;;;17.59;65.33
60479;BME280;46321;48.398;11.754;2023-05-07T07:23:11;96605.19;;;17.76;64.04
60479;BME280;46321;48.398;11.754;2023-05-07T07:25:36;96598.78;;;17.77;64.67
60479;BME280;46321;48.398;11.754;2023-05-07T07:28:01;96601.34;;;17.65;63.47
60479;BME280;46321;48.398;11.754;2023-05-07T07:30:27;96599.09;;;17.62;64.34
60479;BME280;46321;48.398;11.754;2023-05-07T07:32:52;96595.00;;;17.85;64.85
60479;BME280;46321;48.398;11.754;2023-05-07T07:35:17;96594.53;;;18.14;63.94
60479;BME280;46321;48.398;11.754;2023-05-07T07:37:43;96596.34;;;18.20;62.92
60479;BME280;46321;48.398;11.754;2023-05-07T07:40:08;96585.63;;;18.20;63.63
60479;BME280;46321;48.398;11.754;2023-05-07T07:42:34;96594.78;;;18.31;62.38
60479;BME280;46321;48.398;11.754;2023-05-07T07:44:59;96596.00;;;18.54;61.66
60479;BME280;46321;48.398;11.754;2023-05-07T07:47:24;96594.13;;;18.54;62.03
60479;BME280;46321;48.398;11.754;2023-05-07T07:49:50;96588.16;;;18.71;62.47
60479;BME280;46321;48.398;11.754;2023-05-07T07:52:15;96601.63;;;18.83;62.42
60479;BME280;46321;48.398;11.754;2023-05-07T07:54:40;96600.16;;;19.18;61.74
60479;BME280;46321;48.398;11.754;2023-05-07T07:57:05;96602.84;;;19.18;60.23
60479;BME280;46321;48.398;11.754;2023-05-07T07:59:31;96600.47;;;19.10;60.53
60479;BME280;46321;48.398;11.754;2023-05-07T08:01:56;96603.59;;;19.07;61.88
60479;BME280;46321;48.398;11.754;2023-05-07T08:04:22;96595.13;;;19.53;61.07
60479;BME280;46321;48.398;11.754;2023-05-07T08:06:48;96597.84;;;19.89;59.23
60479;BME280;46321;48.398;11.754;2023-05-07T08:09:13;96589.69;;;19.96;58.97
60479;BME280;46321;48.398;11.754;2023-05-07T08:11:38;96586.06;;;20.38;58.48
60479;BME280;46321;48.398;11.754;2023-05-07T08:14:04;96591.41;;;20.50;55.66
60479;BME280;46321;48.398;11.754;2023-05-07T08:16:30;96594.19;;;20.55;56.05
60479;BME280;46321;48.398;11.754;2023-05-07T08:18:55;96596.81;;;20.79;55.45
60479;BME280;46321;48.398;11.754;2023-05-07T08:21:20;96591.16;;;21.05;54.83
60479;BME280;46321;48.398;11.754;2023-05-07T08:23:45;96591.41;;;21.50;56.05
60479;BME280;46321;48.398;11.754;2023-05-07T08:26:11;96587.56;;;21.63;53.17
60479;BME280;46321;48.398;11.754;2023-05-07T08:28:36;96595.28;;;21.42;54.68
60479;BME280;46321;48.398;11.754;2023-05-07T08:31:02;96592.38;;;21.78;53.88
60479;BME280;46321;48.398;11.754;2023-05-07T08:33:27;96587.72;;;22.08;52.07
60479;BME280;46321;48.398;11.754;2023-05-07T08:35:52;96589.53;;;22.64;51.51
60479;BME280;46321;48.398;11.754;2023-05-07T08:38:18;96592.44;;;23.03;50.28
60479;BME280;46321;48.398;11.754;2023-05-07T08:40:43;96597.06;;;22.40;48.30
60479;BME280;46321;48.398;11.754;2023-05-07T08:43:12;96596.38;;;22.50;50.32
60479;BME280;46321;48.398;11.754;2023-05-07T08:45:39;96592.16;;;23.04;48.93
60479;BME280;46321;48.398;11.754;2023-05-07T08:48:09;96597.09;;;23.68;48.72
60479;BME280;46321;48.398;11.754;2023-05-07T08:50:36;96599.94;;;23.89;47.21
60479;BME280;46321;48.398;11.754;2023-05-07T08:53:03;96596.13;;;23.24;46.86
60479;BME280;46321;48.398;11.754;2023-05-07T08:55:28;96590.59;;;23.08;47.71
60479;BME280;46321;48.398;11.754;2023-05-07T08:57:53;96592.63;;;23.51;46.76
60479;BME280;46321;48.398;11.754;2023-05-07T09:00:19;96588.34;;;23.55;46.00
60479;BME280;46321;48.398;11.754;2023-05-07T09:02:44;96583.34;;;24.13;46.05
60479;BME280;46321;48.398;11.754;2023-05-07T09:05:09;96588.75;;;24.56;44.64
60479;BME280;46321;48.398;11.754;2023-05-07T09:07:35;96590.66;;;24.12;46.46
60479;BME280;46321;48.398;11.754;2023-05-07T09:10:04;96586.31;;;24.60;45.04
60479;BME280;46321;48.398;11.754;2023-05-07T09:12:29;96589.13;;;24.86;46.88
60479;BME280;46321;48.398;11.754;2023-05-07T09:14:55;96598.75;;;25.52;43.23
60479;BME280;46321;48.398;11.754;2023-05-07T09:17:20;96596.81;;;24.46;42.99
60479;BME280;46321;48.398;11.754;2023-05-07T09:19:46;96596.69;;;24.89;42.86
60479;BME280;46321;48.398;11.754;2023-05-07T09:22:11;96591.13;;;25.27;42.06
60479;BME280;46321;48.398;11.754;2023-05-07T09:24:37;96584.66;;;25.29;40.88
60479;BME280;46321;48.398;11.754;2023-05-07T09:27:04;96590.66;;;25.72;41.01
60479;BME280;46321;48.398;11.754;2023-05-07T09:29:29;96588.19;;;25.66;40.33
60479;BME280;46321;48.398;11.754;2023-05-07T09:32:00;96595.09;;;24.29;41.17
60479;BME280;46321;48.398;11.754;2023-05-07T09:34:25;96588.81;;;24.72;39.73
60479;BME280;46321;48.398;11.754;2023-05-07T09:36:50;96588.59;;;24.95;40.40
60479;BME280;46321;48.398;11.754;2023-05-07T09:39:16;96592.81;;;25.91;40.51
60479;BME280;46321;48.398;11.754;2023-05-07T09:41:46;96583.84;;;25.91;39.73
60479;BME280;46321;48.398;11.754;2023-05-07T09:44:12;96576.81;;;25.90;38.85
60479;BME280;46321;48.398;11.754;2023-05-07T09:46:42;96576.16;;;26.35;38.27
60479;BME280;46321;48.398;11.754;2023-05-07T09:49:12;96583.28;;;25.36;38.87
60479;BME280;46321;48.398;11.754;2023-05-07T09:51:48;96590.97;;;24.70;40.19
60479;BME280;46321;48.398;11.754;2023-05-07T09:54:15;96582.75;;;25.24;38.24
60479;BME280;46321;48.398;11.754;2023-05-07T09:56:40;96592.25;;;25.63;37.87
60479;BME280;46321;48.398;11.754;2023-05-07T09:59:07;96587.66;;;25.69;37.66
60479;BME280;46321;48.398;11.754;2023-05-07T10:01:35;96585.75;;;25.64;35.74
60479;BME280;46321;48.398;11.754;2023-05-07T10:04:02;96590.53;;;24.35;40.54
60479;BME280;46321;48.398;11.754;2023-05-07T10:06:29;96581.81;;;24.92;41.85
60479;BME280;46321;48.398;11.754;2023-05-07T10:08:55;96572.94;;;26.43;38.31
60479;BME280;46321;48.398;11.754;2023-05-07T10:11:22;96571.16;;;26.73;38.20
60479;BME280;46321;48.398;11.754;2023-05-07T10:13:48;96581.03;;;26.48;37.63
60479;BME280;46321;48.398;11.754;2023-05-07T10:16:14;96576.53;;;25.60;38.40
60479;BME280;46321;48.398;11.754;2023-05-07T10:18:40;96580.91;;;25.87;37.94
60479;BME280;46321;48.398;11.754;2023-05-07T10:21:18;96588.97;;;25.61;37.99
60479;BME280;46321;48.398;11.754;2023-05-07T10:23:46;96571.75;;;27.21;36.76
60479;BME280;46321;48.398;11.754;2023-05-07T10:26:15;96577.09;;;27.31;33.76
60479;BME280;46321;48.398;11.754;2023-05-07T10:28:45;96568.81;;;26.56;34.37
60479;BME280;46321;48.398;11.754;2023-05-07T10:33:59;96577.59;;;25.33;38.63
60479;BME280;46321;48.398;11.754;2023-05-07T10:36:25;96582.22;;;25.64;38.30
60479;BME280;46321;48.398;11.754;2023-05-07T10:38:51;96582.47;;;26.96;37.25
60479;BME280;46321;48.398;11.754;2023-05-07T10:41:17;96569.22;;;25.45;36.45
60479;BME280;46321;48.398;11.754;2023-05-07T10:43:45;96580.31;;;25.38;36.97
60479;BME280;46321;48.398;11.754;2023-05-07T10:51:32;96574.31;;;25.04;37.22
60479;BME280;46321;48.398;11.754;2023-05-07T10:56:40;96574.59;;;24.39;38.61
60479;BME280;46321;48.398;11.754;2023-05-07T11:01:59;96575.50;;;24.60;39.47
60479;BME280;46321;48.398;11.754;2023-05-07T11:04:27;96566.38;;;24.87;39.67
60479;BME280;46321;48.398;11.754;2023-05-07T11:15:04;96574.69;;;24.65;38.13
60479;BME280;46321;48.398;11.754;2023-05-07T11:17:29;96572.44;;;23.97;38.55
60479;BME280;46321;48.398;11.754;2023-05-07T11:19:57;96581.38;;;23.04;40.12
60479;BME280;46321;48.398;11.754;2023-05-07T11:24:59;96576.47;;;22.56;41.32
60479;BME280;46321;48.398;11.754;2023-05-07T11:27:25;96570.53;;;22.54;41.46
60479;BME280;46321;48.398;11.754;2023-05-07T11:29:51;96560.88;;;22.81;42.55
60479;BME280;46321;48.398;11.754;2023-05-07T11:32:25;96566.59;;;22.84;41.93
60479;BME280;46321;48.398;11.754;2023-05-07T11:34:52;96562.59;;;22.87;41.71
60479;BME280;46321;48.398;11.754;2023-05-07T11:37:19;96565.41;;;23.30;41.96
60479;BME280;46321;48.398;11.754;2023-05-07T11:39:44;96559.47;;;23.61;40.97
60479;BME280;46321;48.398;11.754;2023-05-07T11:42:45;96566.09;;;23.15;39.39
60479;BME280;46321;48.398;11.754;2023-05-07T11:45:10;96568.47;;;23.39;39.49
60479;BME280;46321;48.398;11.754;2023-05-07T11:47:36;96566.84;;;22.60;41.09
60479;BME280;46321;48.398;11.754;2023-05-07T11:50:04;96560.44;;;22.44;40.54
60479;BME280;46321;48.398;11.754;2023-05-07T11:52:30;96564.91;;;22.78;41.94
60479;BME280;46321;48.398;11.754;2023-05-07T11:54:56;96557.50;;;22.68;42.24
60479;BME280;46321;48.398;11.754;2023-05-07T11:57:23;96558.09;;;22.98;40.96
60479;BME280;46321;48.398;11.754;2023-05-07T11:59:56;96553.00;;;23.02;40.25
60479;BME280;46321;48.398;11.754;2023-05-07T12:02:21;96560.00;;;23.25;39.63
60479;BME280;46321;48.398;11.754;2023-05-07T12:04:47;96560.00;;;23.30;38.62
60479;BME280;46321;48.398;11.754;2023-05-07T12:07:13;96561.66;;;23.31;40.06
60479;BME280;46321;48.398;11.754;2023-05-07T12:09:40;96560.78;;;23.53;41.43
60479;BME280;46321;48.398;11.754;2023-05-07T12:12:06;96557.94;;;23.38;39.20
60479;BME280;46321;48.398;11.754;2023-05-07T12:14:31;96554.31;;;23.54;39.77
60479;BME280;46321;48.398;11.754;2023-05-07T12:16:58;96555.66;;;23.52;40.16
60479;BME280;46321;48.398;11.754;2023-05-07T12:19:28;96552.38;;;23.22;40.75
60479;BME280;46321;48.398;11.754;2023-05-07T12:21:53;96549.41;;;23.24;38.51
60479;BME280;46321;48.398;11.754;2023-05-07T12:24:19;96545.56;;;22.41;39.70
60479;BME280;46321;48.398;11.754;2023-05-07T12:26:44;96537.75;;;22.62;39.62
60479;BME280;46321;48.398;11.754;2023-05-07T12:29:10;96544.44;;;22.82;41.67
60479;BME280;46321;48.398;11.754;2023-05-07T12:31:35;96539.72;;;22.95;37.73
60479;BME280;46321;48.398;11.754;2023-05-07T12:34:00;96539.94;;;23.21;38.82
60479;BME280;46321;48.398;11.754;2023-05-07T12:36:26;96535.50;;;23.37;39.19
60479;BME280;46321;48.398;11.754;2023-05-07T12:38:51;96527.00;;;23.51;38.97
60479;BME280;46321;48.398;11.754;2023-05-07T12:41:16;96536.59;;;23.36;38.54
60479;BME280;46321;48.398;11.754;2023-05-07T12:43:44;96532.66;;;23.49;37.65
60479;BME280;46321;48.398;11.754;2023-05-07T12:46:11;96531.69;;;23.66;38.03
60479;BME280;46321;48.398;11.754;2023-05-07T12:48:43;96523.59;;;23.66;39.12
60479;BME280;46321;48.398;11.754;2023-05-07T12:51:08;96523.97;;;23.80;38.54
60479;BME280;46321;48.398;11.754;2023-05-07T12:53:40;96518.63;;;23.47;40.06
60479;BME280;46321;48.398;11.754;2023-05-07T12:56:07;96518.88;;;22.90;37.13
60479;BME280;46321;48.398;11.754;2023-05-07T12:58:33;96508.38;;;23.49;37.45
60479;BME280;46321;48.398;11.754;2023-05-07T13:01:01;96506.88;;;23.69;38.00
60479;BME280;46321;48.398;11.754;2023-05-07T13:03:34;96505.56;;;23.77;37.76
60479;BME280;46321;48.398;11.754;2023-05-07T13:06:04;96510.28;;;23.54;37.17
60479;BME280;46321;48.398;11.754;2023-05-07T13:08:32;96509.81;;;23.62;38.54